Time;durP1;ratioP1;P1;durP2;ratioP2;P2;SDS_P1;SDS_P2;PMS_P1;PMS_P2;Temp;Humidity;BMP_temperature;BMP_pressure;BME280_temperature;BME280_humidity;BME280_pressure;Samples;Min_cycle;Max_cycle;Signal;HPM_P1;HPM_P2
2022/05/17 00:00:54;;;;;;;22.08;18.05;;;;;;;16.89;66.86;99626.91;5024725;28;20029;-75
2022/05/17 00:03:20;;;;;;;22.05;19.30;;;;;;;16.98;66.53;99619.00;5032673;28;20033;-75
2022/05/17 00:05:46;;;;;;;24.33;19.35;;;;;;;17.01;66.37;99622.31;5018938;28;23030;-74
2022/05/17 00:08:13;;;;;;;33.50;20.52;;;;;;;16.69;67.66;99626.13;5030779;28;20025;-75
2022/05/17 00:10:39;;;;;;;22.95;19.58;;;;;;;16.47;68.68;99617.25;5015278;28;20100;-75
2022/05/17 00:13:06;;;;;;;26.60;18.95;;;;;;;16.17;69.81;99616.97;5014186;28;20026;-75
2022/05/17 00:15:33;;;;;;;26.83;18.80;;;;;;;16.24;69.64;99614.31;5026294;28;20037;-74
2022/05/17 00:18:00;;;;;;;24.73;18.38;;;;;;;16.25;68.92;99616.78;5033000;28;20108;-75
2022/05/17 00:20:26;;;;;;;21.63;18.73;;;;;;;16.21;69.33;99629.97;5033753;28;20484;-74
2022/05/17 00:22:52;;;;;;;22.80;18.27;;;;;;;16.20;69.11;99619.09;5033722;28;20121;-74
2022/05/17 00:25:21;;;;;;;23.75;17.40;;;;;;;16.58;68.22;99622.25;5021095;28;20053;-74
2022/05/17 00:27:47;;;;;;;18.02;16.15;;;;;;;16.62;67.22;99623.19;5013764;28;20052;-75
2022/05/17 00:30:13;;;;;;;18.52;16.63;;;;;;;16.65;66.97;99622.41;5012557;28;20034;-74
2022/05/17 00:32:39;;;;;;;23.48;18.00;;;;;;;16.51;66.78;99620.13;5013490;28;20025;-74
2022/05/17 00:35:05;;;;;;;22.00;17.65;;;;;;;16.15;68.13;99623.00;5021109;28;20025;-74
2022/05/17 00:37:31;;;;;;;20.33;17.27;;;;;;;15.92;69.20;99608.78;5033413;28;20048;-75
2022/05/17 00:39:56;;;;;;;19.60;17.35;;;;;;;16.21;68.18;99613.06;5033663;28;20399;-74
2022/05/17 00:42:22;;;;;;;18.83;16.65;;;;;;;15.79;70.20;99617.31;5033104;28;20025;-74
2022/05/17 00:44:48;;;;;;;22.20;18.23;;;;;;;15.91;70.07;99619.25;5031571;28;20033;-74
2022/05/17 00:47:17;;;;;;;25.90;18.50;;;;;;;16.20;68.62;99614.25;5031922;28;20090;-74
2022/05/17 00:49:48;;;;;;;20.50;18.05;;;;;;;16.16;68.74;99612.53;5033212;28;20039;-74
2022/05/17 00:52:34;;;;;;;20.40;16.95;;;;;;;16.34;68.75;99612.91;5031796;28;20037;-75
2022/05/17 00:55:06;;;;;;;20.80;16.23;;;;;;;16.44;68.40;99611.53;5022957;28;20041;-75
2022/05/17 00:57:55;;;;;;;21.10;16.50;;;;;;;16.42;68.29;99609.06;5013252;28;20033;-75
2022/05/17 01:00:22;;;;;;;21.00;17.08;;;;;;;16.31;68.83;99608.00;5030238;28;20571;-75
2022/05/17 01:02:54;;;;;;;26.67;16.23;;;;;;;16.23;69.19;99615.50;5032718;28;20044;-74
2022/05/17 01:05:23;;;;;;;18.92;15.88;;;;;;;16.05;69.67;99613.13;5020607;28;20469;-75
2022/05/17 01:07:54;;;;;;;18.83;15.65;;;;;;;16.05;70.17;99613.13;5031476;28;20026;-74
2022/05/17 01:10:21;;;;;;;19.88;17.48;;;;;;;16.14;69.93;99610.91;5032898;28;20021;-74
2022/05/17 01:14:57;;;;;;;23.23;16.58;;;;;;;16.14;69.65;99610.09;5032073;28;20476;-74
2022/05/17 01:15:34;;;;;;;18.67;16.67;;;;;;;15.77;71.06;99601.97;5018949;28;20073;-74
2022/05/17 01:18:01;;;;;;;18.60;15.73;;;;;;;15.61;71.96;99599.19;5013181;28;20053;-74
2022/05/17 01:20:27;;;;;;;18.80;16.80;;;;;;;15.49;72.12;99609.38;5018685;28;20025;-74
2022/05/17 01:22:53;;;;;;;20.17;17.85;;;;;;;15.44;71.96;99604.84;5032246;28;20379;-74
2022/05/17 01:25:19;;;;;;;23.05;16.63;;;;;;;15.29;72.45;99588.78;5026961;28;20049;-74
2022/05/17 01:28:24;;;;;;;20.38;15.15;;;;;;;15.24;72.65;99598.31;5032046;28;20021;-74
2022/05/17 01:30:50;;;;;;;18.63;15.93;;;;;;;15.40;71.68;99597.47;5017501;28;20547;-74
2022/05/17 01:33:18;;;;;;;18.58;16.38;;;;;;;15.26;71.95;99592.28;5012506;28;20026;-74
2022/05/17 01:35:44;;;;;;;18.48;14.80;;;;;;;15.25;72.08;99580.22;5011442;28;20044;-74
2022/05/17 01:38:10;;;;;;;16.95;15.13;;;;;;;15.09;72.91;99587.88;5029642;28;20061;-74
2022/05/17 01:40:37;;;;;;;17.08;15.27;;;;;;;15.06;72.46;99585.75;5032344;28;20476;-74
2022/05/17 01:43:03;;;;;;;20.45;15.90;;;;;;;14.94;73.08;99583.84;5031605;28;20018;-74
2022/05/17 01:45:28;;;;;;;17.85;15.68;;;;;;;15.09;72.93;99591.47;5030751;28;20025;-74
2022/05/17 01:47:54;;;;;;;18.50;14.93;;;;;;;15.14;72.00;99587.59;5021604;28;20025;-74
2022/05/17 01:50:20;;;;;;;17.30;15.50;;;;;;;15.09;72.17;99585.03;5012306;28;20088;-74
2022/05/17 01:52:45;;;;;;;21.48;14.88;;;;;;;15.09;71.85;99577.41;5026253;28;20143;-74
2022/05/17 01:55:12;;;;;;;16.55;14.48;;;;;;;14.96;72.81;99575.84;5031872;28;20025;-74
2022/05/17 01:57:37;;;;;;;23.55;14.60;;;;;;;14.85;72.91;99572.75;5031101;28;20033;-74
2022/05/17 02:00:08;;;;;;;18.98;15.65;;;;;;;14.94;72.74;99579.03;5031550;28;20054;-74
2022/05/17 02:02:34;;;;;;;16.92;14.48;;;;;;;15.05;72.00;99578.47;5030888;28;20034;-74
2022/05/17 02:04:59;;;;;;;17.80;14.00;;;;;;;15.11;71.76;99586.31;5031822;28;20014;-74
2022/05/17 02:07:25;;;;;;;17.92;14.80;;;;;;;15.17;71.49;99584.03;5019668;28;20567;-74
2022/05/17 02:09:50;;;;;;;19.33;14.18;;;;;;;15.05;71.58;99575.66;5012022;28;20053;-73
2022/05/17 02:12:17;;;;;;;18.45;15.32;;;;;;;15.06;71.80;99566.88;5011877;28;20036;-74
2022/05/17 02:14:42;;;;;;;20.52;15.32;;;;;;;15.22;70.89;99571.66;5013486;28;20080;-74
2022/05/17 02:17:08;;;;;;;18.70;15.88;;;;;;;14.68;72.74;99559.81;5020739;28;20501;-74
2022/05/17 02:19:33;;;;;;;22.02;16.63;;;;;;;14.46;74.32;99564.84;5010534;28;20048;-74
2022/05/17 02:21:59;;;;;;;17.80;15.90;;;;;;;14.78;73.63;99559.31;5011648;28;20025;-74
2022/05/17 02:24:27;;;;;;;21.00;16.15;;;;;;;15.08;71.98;99560.84;5011806;28;20018;-74
2022/05/17 02:26:54;;;;;;;23.90;16.55;;;;;;;15.08;71.52;99547.59;5016706;28;20029;-74
2022/05/17 02:29:19;;;;;;;18.13;15.35;;;;;;;14.93;72.58;99562.50;5031389;28;20025;-74
2022/05/17 02:31:44;;;;;;;20.88;16.20;;;;;;;14.46;74.05;99551.59;5019995;28;20546;-74
2022/05/17 02:34:10;;;;;;;19.45;16.55;;;;;;;14.33;74.09;99561.25;5015816;28;20018;-74
2022/05/17 02:36:36;;;;;;;19.08;15.90;;;;;;;14.18;74.75;99563.66;5010412;28;20569;-73
2022/05/17 02:39:01;;;;;;;30.23;17.80;;;;;;;13.97;76.17;99560.22;5030727;28;20029;-74
2022/05/17 02:41:27;;;;;;;26.33;17.65;;;;;;;14.06;76.33;99571.31;5031256;28;20413;-74
2022/05/17 02:43:53;;;;;;;27.60;19.08;;;;;;;13.79;78.18;99585.81;5016024;28;20038;-73
2022/05/17 02:46:19;;;;;;;25.02;19.40;;;;;;;13.73;78.59;99578.78;5015230;28;20164;-74
2022/05/17 02:48:44;;;;;;;21.90;18.05;;;;;;;13.83;78.03;99571.88;5011462;28;20038;-74
2022/05/17 02:51:14;;;;;;;22.20;17.33;;;;;;;13.87;77.51;99567.16;5012881;28;20446;-74
2022/05/17 02:53:40;;;;;;;21.77;17.35;;;;;;;13.69;78.26;99572.25;5029846;28;20556;-74
2022/05/17 02:56:07;;;;;;;24.80;15.90;;;;;;;13.55;78.46;99578.22;5031071;28;20056;-73
2022/05/17 02:58:33;;;;;;;21.95;16.55;;;;;;;13.58;77.51;99583.94;5012476;28;20036;-73
2022/05/17 03:00:59;;;;;;;19.50;15.70;;;;;;;13.55;77.29;99573.44;5011402;28;20060;-74
2022/05/17 03:03:25;;;;;;;20.23;14.95;;;;;;;13.60;77.09;99570.38;5011494;28;20571;-74
2022/05/17 03:05:51;;;;;;;21.58;16.98;;;;;;;13.60;76.82;99573.19;5025730;28;20715;-74
2022/05/17 03:08:16;;;;;;;16.35;14.65;;;;;;;13.72;76.44;99577.13;5020391;28;20119;-74
2022/05/17 03:10:42;;;;;;;17.95;14.95;;;;;;;13.62;76.18;99575.66;5012643;28;20488;-74
2022/05/17 03:13:12;;;;;;;20.00;14.63;;;;;;;13.84;75.53;99582.75;5009986;28;20480;-73
2022/05/17 03:15:38;;;;;;;23.63;15.90;;;;;;;13.84;75.31;99588.38;5010733;28;20037;-74
2022/05/17 03:18:04;;;;;;;18.17;14.57;;;;;;;13.82;74.96;99585.09;5021453;28;20407;-74
2022/05/17 03:20:29;;;;;;;18.60;14.93;;;;;;;13.81;75.19;99589.09;5030928;28;20052;-74
2022/05/17 03:22:55;;;;;;;17.13;13.82;;;;;;;13.98;73.81;99571.13;5030897;28;20025;-74
2022/05/17 03:25:21;;;;;;;26.27;15.25;;;;;;;14.37;73.06;99579.09;5030773;28;20111;-74
2022/05/17 03:27:46;;;;;;;15.68;12.73;;;;;;;14.60;72.33;99576.50;5019401;28;20104;-74
2022/05/17 03:30:12;;;;;;;16.50;13.38;;;;;;;14.68;70.84;99577.50;5014763;28;20116;-74
2022/05/17 03:32:38;;;;;;;20.80;13.73;;;;;;;14.24;72.65;99585.91;5022431;28;20115;-74
2022/05/17 03:35:04;;;;;;;18.17;14.50;;;;;;;14.25;73.11;99581.94;5032830;28;20041;-74
2022/05/17 03:37:30;;;;;;;23.05;14.52;;;;;;;14.38;72.26;99589.16;5031199;28;20068;-74
2022/05/17 03:39:55;;;;;;;16.55;13.63;;;;;;;14.17;73.30;99594.94;5032915;28;20159;-74
2022/05/17 03:42:21;;;;;;;22.60;14.25;;;;;;;13.94;74.23;99591.88;5033016;28;20105;-74
2022/05/17 03:44:47;;;;;;;23.60;13.40;;;;;;;13.99;73.80;99589.63;5033896;28;20030;-73
2022/05/17 03:47:12;;;;;;;20.40;14.18;;;;;;;14.13;73.50;99586.44;5027089;28;20112;-74
2022/05/17 03:49:39;;;;;;;18.60;13.68;;;;;;;14.24;73.16;99597.16;5028504;28;20040;-74
2022/05/17 03:52:06;;;;;;;19.88;14.15;;;;;;;14.21;73.58;99597.88;5034217;28;20101;-74
2022/05/17 03:54:32;;;;;;;20.20;14.52;;;;;;;13.77;74.96;99596.59;5032633;28;20037;-74
2022/05/17 03:56:58;;;;;;;19.10;14.63;;;;;;;13.59;75.98;99591.22;5029769;28;20017;-74
2022/05/17 03:59:24;;;;;;;16.20;13.15;;;;;;;13.78;75.97;99584.19;5019764;28;20519;-74
2022/05/17 04:01:49;;;;;;;21.70;14.77;;;;;;;13.85;75.60;99592.00;5024847;28;20033;-72
2022/05/17 04:04:15;;;;;;;25.77;15.30;;;;;;;13.95;75.48;99585.06;5033509;28;20029;-74
2022/05/17 04:06:41;;;;;;;22.60;15.48;;;;;;;14.09;75.32;99585.50;5032266;28;20029;-74
2022/05/17 04:09:07;;;;;;;19.20;15.27;;;;;;;14.25;74.77;99585.56;5033736;28;20104;-74
2022/05/17 04:11:33;;;;;;;16.30;13.50;;;;;;;14.37;74.59;99595.13;5033862;28;20021;-76
2022/05/17 04:13:59;;;;;;;20.02;14.13;;;;;;;14.59;73.72;99585.28;5033400;28;20037;-75
2022/05/17 04:16:25;;;;;;;21.30;13.93;;;;;;;14.70;73.48;99591.22;5031668;28;20033;-74
2022/05/17 04:18:50;;;;;;;20.35;17.52;;;;;;;14.79;72.88;99591.09;5032453;28;20059;-74
2022/05/17 04:21:16;;;;;;;16.77;14.98;;;;;;;14.74;73.69;99598.63;5033635;28;20025;-73
2022/05/17 04:23:42;;;;;;;20.00;14.43;;;;;;;14.68;73.88;99593.59;5033596;28;20021;-75
2022/05/17 04:26:08;;;;;;;19.67;15.20;;;;;;;14.59;74.57;99597.38;5023780;28;20029;-74
2022/05/17 04:28:34;;;;;;;26.42;16.83;;;;;;;15.05;73.46;99607.47;5021880;28;20037;-74
2022/05/17 04:30:59;;;;;;;22.13;15.05;;;;;;;15.42;72.77;99609.19;5028725;28;20060;-74
2022/05/17 04:33:25;;;;;;;27.90;16.10;;;;;;;15.46;71.79;99603.66;5033422;28;20017;-74
2022/05/17 04:35:51;;;;;;;26.48;13.55;;;;;;;15.72;71.75;99612.34;5032125;28;20033;-72
2022/05/17 04:38:16;;;;;;;25.10;16.05;;;;;;;15.96;70.69;99606.88;5013954;28;20034;-75
2022/05/17 04:40:42;;;;;;;23.58;14.95;;;;;;;16.23;69.93;99605.06;5011192;28;20060;-75
2022/05/17 04:43:08;;;;;;;34.08;14.48;;;;;;;16.49;68.85;99597.09;5013442;28;20030;-77
2022/05/17 04:45:34;;;;;;;28.95;16.13;;;;;;;16.73;68.41;99601.63;5021453;28;20041;-76
2022/05/17 04:48:02;;;;;;;33.13;15.50;;;;;;;16.95;66.91;99599.16;5020596;28;20026;-76
2022/05/17 04:50:27;;;;;;;17.35;13.55;;;;;;;17.13;66.36;99602.34;5011299;28;20493;-75
2022/05/17 04:52:53;;;;;;;21.17;14.20;;;;;;;17.28;66.06;99580.00;5012050;28;20045;-75
2022/05/17 04:55:20;;;;;;;23.50;12.57;;;;;;;17.51;65.23;99586.44;5014975;28;20029;-75
2022/05/17 04:57:46;;;;;;;20.60;14.02;;;;;;;17.42;65.89;99580.25;5014731;28;20026;-74
2022/05/17 05:00:18;;;;;;;21.10;13.02;;;;;;;17.63;66.25;99588.22;5029522;28;20353;-75
2022/05/17 05:02:44;;;;;;;32.25;18.02;;;;;;;17.70;65.60;99583.91;5031197;28;20064;-75
2022/05/17 05:05:09;;;;;;;19.73;14.68;;;;;;;17.71;65.37;99591.97;5029895;28;20025;-75
2022/05/17 05:07:35;;;;;;;21.52;13.77;;;;;;;17.83;64.60;99586.09;5027069;28;20388;-74
2022/05/17 05:10:01;;;;;;;52.72;14.35;;;;;;;17.76;64.35;99588.00;5032318;28;20049;-74
2022/05/17 05:12:27;;;;;;;39.63;14.68;;;;;;;17.75;64.68;99577.91;5030120;28;20492;-75
2022/05/17 05:14:52;;;;;;;17.05;12.23;;;;;;;17.66;64.34;99597.97;5028717;28;20021;-75
2022/05/17 05:17:18;;;;;;;15.07;10.90;;;;;;;17.92;64.70;99596.34;5024501;28;20384;-75
2022/05/17 05:19:43;;;;;;;14.85;11.50;;;;;;;17.85;65.13;99601.88;5029734;28;20068;-74
2022/05/17 05:22:09;;;;;;;14.88;11.80;;;;;;;18.05;64.58;99594.94;5024178;28;20021;-74
2022/05/17 05:24:35;;;;;;;23.83;13.45;;;;;;;18.18;64.78;99592.69;5015835;28;20110;-74
2022/05/17 05:27:00;;;;;;;17.95;13.07;;;;;;;18.36;64.54;99587.25;5017208;28;20079;-74
2022/05/17 05:29:26;;;;;;;13.45;12.02;;;;;;;18.64;62.00;99585.13;5031263;28;20071;-76
2022/05/17 05:31:52;;;;;;;20.40;13.35;;;;;;;18.90;62.64;99589.06;5031727;28;20544;-78
2022/05/17 05:34:17;;;;;;;22.60;11.60;;;;;;;19.20;61.80;99583.31;5030947;28;20021;-75
2022/05/17 05:36:44;;;;;;;12.80;11.55;;;;;;;19.37;59.24;99581.00;5015032;28;20060;-76
2022/05/17 05:39:09;;;;;;;10.80;9.70;;;;;;;19.03;55.98;99589.63;5021798;28;20459;-81
2022/05/17 05:41:35;;;;;;;11.27;9.40;;;;;;;19.19;55.68;99583.69;5032474;28;20021;-81
2022/05/17 05:44:00;;;;;;;13.35;9.50;;;;;;;19.26;56.15;99582.94;5017657;28;20394;-73
2022/05/17 05:46:27;;;;;;;15.50;9.80;;;;;;;19.02;56.73;99582.31;5011992;28;20403;-80
2022/05/17 05:48:53;;;;;;;18.10;10.38;;;;;;;19.26;56.22;99572.44;5028842;28;20484;-75
2022/05/17 05:51:19;;;;;;;18.88;9.68;;;;;;;19.47;55.33;99583.13;5030695;28;20025;-75
2022/05/17 05:53:44;;;;;;;13.73;9.57;;;;;;;19.58;55.08;99577.50;5020379;28;20029;-75
2022/05/17 05:56:11;;;;;;;14.20;9.40;;;;;;;19.93;54.40;99581.03;5014257;28;20067;-75
2022/05/17 05:58:39;;;;;;;12.75;9.75;;;;;;;19.70;55.28;99587.75;5020247;28;20496;-75
2022/05/17 06:01:06;;;;;;;10.25;9.35;;;;;;;19.47;55.09;99583.13;5026406;28;20112;-73
2022/05/17 06:03:32;;;;;;;13.45;9.23;;;;;;;19.34;55.76;99578.97;5026589;28;20480;-75
2022/05/17 06:05:58;;;;;;;17.73;10.10;;;;;;;19.44;57.45;99581.09;5022918;28;20064;-73
2022/05/17 06:08:24;;;;;;;10.20;9.15;;;;;;;19.42;57.09;99569.28;5024437;28;20041;-75
2022/05/17 06:10:49;;;;;;;12.27;9.27;;;;;;;19.32;56.16;99578.56;5013427;28;20041;-73
2022/05/17 06:13:16;;;;;;;12.30;9.57;;;;;;;19.57;56.32;99577.94;5043810;28;20082;-74
2022/05/17 06:15:42;;;;;;;12.45;9.25;;;;;;;19.74;55.33;99577.22;5029168;28;20460;-76
2022/05/17 06:18:09;;;;;;;10.00;8.70;;;;;;;20.10;54.62;99565.31;5031416;28;20029;-76
2022/05/17 06:20:36;;;;;;;13.02;9.93;;;;;;;20.52;53.25;99568.72;5029307;28;20463;-76
2022/05/17 06:23:03;;;;;;;15.73;8.63;;;;;;;20.61;52.73;99571.97;5026766;28;20034;-72
2022/05/17 06:25:28;;;;;;;10.85;8.32;;;;;;;21.00;51.74;99572.50;5025058;28;20017;-74
2022/05/17 06:27:54;;;;;;;11.32;8.40;;;;;;;21.15;50.82;99570.47;5025137;28;20549;-74
2022/05/17 06:30:20;;;;;;;14.07;9.02;;;;;;;21.34;50.59;99574.94;5020418;28;20080;-74
2022/05/17 06:32:46;;;;;;;12.18;8.60;;;;;;;21.21;50.13;99576.56;5017569;28;20022;-74
2022/05/17 06:35:13;;;;;;;18.20;9.23;;;;;;;21.45;50.27;99575.75;5012646;28;20117;-73
2022/05/17 06:37:38;;;;;;;12.27;7.55;;;;;;;21.73;49.21;99564.78;5035857;28;20121;-73
2022/05/17 06:40:06;;;;;;;12.40;8.07;;;;;;;22.14;49.06;99558.59;5025583;28;20113;-75
2022/05/17 06:42:32;;;;;;;11.95;8.90;;;;;;;22.31;48.22;99556.06;5041767;28;20431;-72
2022/05/17 06:44:58;;;;;;;18.08;8.35;;;;;;;22.42;47.96;99554.00;5026402;28;20040;-76
2022/05/17 06:47:24;;;;;;;15.48;7.90;;;;;;;22.49;47.04;99553.16;5028763;28;20035;-74
2022/05/17 06:49:50;;;;;;;9.57;7.97;;;;;;;22.63;46.55;99548.63;5027703;28;20035;-75
2022/05/17 06:52:16;;;;;;;18.55;8.63;;;;;;;22.40;47.25;99552.78;5030503;28;20380;-77
2022/05/17 06:54:43;;;;;;;13.25;8.73;;;;;;;22.21;48.97;99548.38;5029788;28;20064;-77
2022/05/17 06:57:11;;;;;;;13.35;8.00;;;;;;;22.21;46.61;99548.38;5029857;28;20022;-75
2022/05/17 06:59:39;;;;;;;10.65;7.78;;;;;;;22.59;45.48;99545.78;5030286;28;20041;-74
2022/05/17 07:02:05;;;;;;;14.52;7.53;;;;;;;22.75;46.46;99536.72;5023231;28;20369;-76
2022/05/17 07:04:32;;;;;;;14.23;8.48;;;;;;;23.06;45.70;99538.97;5015563;28;20026;-76
2022/05/17 07:06:59;;;;;;;10.05;7.68;;;;;;;23.11;45.84;99532.81;5016144;28;20033;-74
2022/05/17 07:09:25;;;;;;;10.55;8.05;;;;;;;23.34;45.47;99529.38;5032204;28;20025;-72
2022/05/17 07:14:39;;;;;;;8.35;6.97;;;;;;;23.69;41.05;99533.13;5034364;28;20036;-74
2022/05/17 07:17:22;;;;;;;11.37;6.90;;;;;;;23.63;41.02;99529.09;5031608;28;20389;-77
2022/05/17 07:19:48;;;;;;;10.65;6.90;;;;;;;23.74;41.40;99531.03;5028440;28;20522;-76
2022/05/17 07:22:13;;;;;;;8.00;6.40;;;;;;;24.03;41.26;99527.88;5028913;28;20034;-77
2022/05/17 07:24:41;;;;;;;9.18;6.47;;;;;;;24.33;40.21;99532.81;5031464;28;20051;-78
2022/05/17 07:27:07;;;;;;;9.00;6.72;;;;;;;24.51;39.98;99526.84;5037566;28;20106;-76
2022/05/17 07:29:33;;;;;;;8.88;6.32;;;;;;;24.90;39.72;99529.59;5030908;28;20484;-75
2022/05/17 07:31:59;;;;;;;9.73;6.28;;;;;;;25.01;39.58;99524.50;5028240;28;20022;-75
2022/05/17 07:34:27;;;;;;;10.77;7.40;;;;;;;24.70;38.75;99526.59;5027426;28;20045;-75
2022/05/17 07:36:53;;;;;;;11.48;7.50;;;;;;;24.93;39.79;99517.28;5027481;28;20442;-76
2022/05/17 07:39:19;;;;;;;7.60;6.05;;;;;;;25.07;38.87;99524.81;5032674;28;20091;-77
2022/05/17 07:41:44;;;;;;;26.33;8.07;;;;;;;24.79;37.69;99518.31;5030760;28;20026;-78
2022/05/17 07:44:11;;;;;;;17.25;7.57;;;;;;;24.37;38.39;99515.59;5032650;28;20492;-75
2022/05/17 07:46:37;;;;;;;8.55;5.70;;;;;;;24.45;37.96;99522.84;5039532;28;20436;-76
2022/05/17 07:49:03;;;;;;;7.45;6.65;;;;;;;24.28;38.71;99512.47;5031749;28;20108;-76
2022/05/17 07:51:28;;;;;;;13.43;5.25;;;;;;;24.43;37.91;99519.63;5035254;28;20021;-76
2022/05/17 07:53:54;;;;;;;8.85;6.20;;;;;;;24.46;37.12;99504.47;5032446;28;20026;-74
2022/05/17 07:56:20;;;;;;;8.10;7.30;;;;;;;24.53;38.59;99515.81;5033603;28;20036;-74
2022/05/17 07:58:46;;;;;;;6.65;5.95;;;;;;;24.41;38.89;99519.25;5027836;28;20416;-74
2022/05/17 08:01:12;;;;;;;15.63;6.47;;;;;;;24.72;39.16;99509.81;5024504;28;20021;-73
2022/05/17 08:03:38;;;;;;;9.15;6.05;;;;;;;25.12;38.08;99500.63;5028972;28;20026;-74
2022/05/17 08:06:04;;;;;;;5.85;5.32;;;;;;;25.53;36.33;99504.47;5026533;28;20252;-76
2022/05/17 08:08:31;;;;;;;7.28;6.57;;;;;;;25.75;36.40;99497.03;5020704;28;20029;-74
2022/05/17 08:10:56;;;;;;;7.55;6.28;;;;;;;25.78;36.92;99484.72;5035539;28;20044;-75
2022/05/17 08:13:24;;;;;;;5.90;5.38;;;;;;;25.86;35.66;99491.13;5043282;28;20025;-74
2022/05/17 08:15:50;;;;;;;7.53;5.45;;;;;;;25.93;34.93;99488.09;5022260;28;20057;-74
2022/05/17 08:18:17;;;;;;;5.97;5.30;;;;;;;26.16;35.24;99486.38;5028586;28;20033;-76
2022/05/17 08:20:42;;;;;;;6.65;5.45;;;;;;;26.45;36.10;99477.19;5036487;28;20037;-75
2022/05/17 08:23:08;;;;;;;8.68;5.97;;;;;;;26.67;35.26;99479.56;5029368;28;20033;-73
2022/05/17 08:28:19;;;;;;;9.57;5.88;;;;;;;25.80;36.08;99481.41;5026406;28;20056;-74
2022/05/17 08:30:47;;;;;;;10.40;6.28;;;;;;;25.57;36.05;99479.41;5026480;28;20025;-74
2022/05/17 08:33:17;;;;;;;7.07;6.38;;;;;;;25.81;36.45;99477.28;5034449;28;20131;-73
2022/05/17 08:36:04;;;;;;;7.47;5.90;;;;;;;26.38;34.94;99473.69;5036317;28;20159;-73
2022/05/17 08:38:34;;;;;;;10.77;6.07;;;;;;;26.31;34.73;99468.94;5027800;28;20103;-75
2022/05/17 08:41:11;;;;;;;9.13;6.25;;;;;;;26.77;34.65;99461.28;5031052;28;20491;-74
2022/05/17 08:43:40;;;;;;;7.35;6.32;;;;;;;26.94;33.83;99460.50;5032680;28;20032;-73
2022/05/17 08:46:26;;;;;;;10.18;6.57;;;;;;;27.17;33.05;99460.31;5029414;28;20543;-74
2022/05/17 08:49:10;;;;;;;5.93;5.43;;;;;;;26.43;34.32;99455.94;5030183;28;20036;-73
2022/05/17 08:51:39;;;;;;;9.23;5.47;;;;;;;27.05;34.00;99447.50;5033011;28;20056;-74
2022/05/17 08:54:08;;;;;;;5.97;5.43;;;;;;;27.65;33.69;99456.22;5032891;28;20030;-74
2022/05/17 08:56:39;;;;;;;6.13;5.40;;;;;;;27.89;32.77;99456.75;5045941;28;20064;-72
2022/05/17 08:59:06;;;;;;;6.40;5.35;;;;;;;28.02;32.00;99456.78;5027532;28;20041;-72
2022/05/17 09:01:44;;;;;;;7.47;5.90;;;;;;;27.69;32.62;99445.41;5025353;28;20037;-74
2022/05/17 09:04:30;;;;;;;9.40;6.20;;;;;;;28.12;33.53;99449.09;5014510;28;20025;-73
2022/05/17 09:07:14;;;;;;;8.98;5.10;;;;;;;28.11;32.14;99442.53;5012189;28;20117;-78
2022/05/17 09:10:12;;;;;;;8.95;5.00;;;;;;;28.05;31.13;99438.63;5028899;28;20033;-73
2022/05/17 09:13:01;;;;;;;5.75;4.63;;;;;;;27.30;30.93;99442.34;5024491;28;20034;-74
2022/05/17 09:15:27;;;;;;;5.47;4.80;;;;;;;27.33;31.18;99448.00;5024374;28;20682;-73
2022/05/17 09:17:53;;;;;;;7.25;4.07;;;;;;;27.66;28.98;99431.97;5012819;28;20030;-76
2022/05/17 09:20:23;;;;;;;6.65;4.65;;;;;;;27.87;30.07;99437.09;5015834;28;20057;-74
2022/05/17 09:22:50;;;;;;;10.23;5.70;;;;;;;27.83;30.49;99442.13;5029503;28;20445;-74
2022/05/17 09:25:25;;;;;;;8.15;5.30;;;;;;;28.28;30.07;99428.88;5029174;28;20068;-75
2022/05/17 09:27:52;;;;;;;11.77;4.80;;;;;;;28.61;29.44;99436.50;5022943;28;20474;-75
2022/05/17 09:30:23;;;;;;;5.32;4.13;;;;;;;28.58;29.98;99428.78;5027785;28;20545;-75
2022/05/17 09:33:00;;;;;;;7.47;4.55;;;;;;;27.92;29.25;99429.97;5026267;28;20032;-74
2022/05/17 09:35:27;;;;;;;12.82;4.15;;;;;;;27.90;28.69;99423.88;5031105;28;20040;-75
2022/05/17 09:37:57;;;;;;;13.18;4.43;;;;;;;28.22;29.61;99422.13;5027752;28;20429;-74
2022/05/17 09:40:29;;;;;;;6.07;4.25;;;;;;;28.33;27.78;99421.78;5031576;28;20139;-75
2022/05/17 09:42:58;;;;;;;5.30;3.83;;;;;;;28.72;28.05;99419.69;5029544;28;20061;-74
2022/05/17 09:46:00;;;;;;;6.30;4.10;;;;;;;29.09;27.56;99407.00;5024210;28;20037;-76
2022/05/17 09:54:31;;;;;;;5.97;3.15;;;;;;;28.97;26.12;99400.00;5032090;28;20040;-76
2022/05/17 09:57:21;;;;;;;5.47;3.92;;;;;;;28.33;28.66;99406.59;5030711;28;20117;-74
2022/05/17 09:59:48;;;;;;;11.13;4.55;;;;;;;28.51;28.53;99401.06;5030091;28;20516;-74
2022/05/17 10:02:34;;;;;;;6.03;3.65;;;;;;;28.42;27.09;99396.00;5026245;28;20643;-75
2022/05/17 10:05:40;;;;;;;12.48;4.05;;;;;;;28.77;26.57;99392.41;5021872;28;20030;-77
2022/05/17 10:08:12;;;;;;;2.30;2.10;;;;;;;29.43;22.72;99396.75;5023475;28;20061;-86
2022/05/17 10:10:44;;;;;;;4.40;3.10;;;;;;;29.74;23.40;99377.91;5028502;28;20033;-76
2022/05/17 10:13:32;;;;;;;9.88;3.65;;;;;;;29.44;25.19;99381.06;5024658;28;20033;-77
2022/05/17 10:16:07;;;;;;;5.93;3.20;;;;;;;29.23;25.95;99383.44;5016467;28;20489;-77
2022/05/17 10:18:38;;;;;;;6.53;2.95;;;;;;;28.91;24.86;99375.97;5011722;28;20231;-77
2022/05/17 10:21:41;;;;;;;7.25;2.95;;;;;;;29.19;24.04;99373.31;5024964;28;20640;-76
2022/05/17 10:24:43;;;;;;;3.40;2.50;;;;;;;29.12;22.15;99380.16;5017882;28;20076;-76
2022/05/17 10:27:37;;;;;;;3.78;2.63;;;;;;;29.31;21.63;99360.13;5027125;28;20029;-77
2022/05/17 10:30:17;;;;;;;4.93;2.80;;;;;;;29.94;21.71;99360.28;5015212;28;20114;-78
2022/05/17 10:32:51;;;;;;;5.43;3.42;;;;;;;30.31;21.40;99357.59;5043107;28;20037;-79
2022/05/17 10:35:32;;;;;;;4.28;2.47;;;;;;;30.53;21.20;99350.94;5024002;28;20080;-74
2022/05/17 10:38:16;;;;;;;2.88;2.05;;;;;;;29.61;19.61;99347.09;5028139;28;20032;-74
2022/05/17 10:40:46;;;;;;;6.47;3.30;;;;;;;29.67;20.07;99341.53;5031041;28;20056;-75
2022/05/17 10:43:17;;;;;;;3.83;3.00;;;;;;;29.61;20.18;99341.34;5031158;28;20025;-82
2022/05/17 10:45:50;;;;;;;4.10;2.30;;;;;;;29.34;21.04;99336.19;5020731;28;20053;-76
2022/05/17 10:48:24;;;;;;;10.48;2.95;;;;;;;29.90;20.80;99331.59;5026958;28;20468;-82
2022/05/17 10:51:27;;;;;;;2.92;2.35;;;;;;;30.08;19.86;99324.31;5030419;28;20115;-79
2022/05/17 10:54:28;;;;;;;2.75;2.10;;;;;;;30.40;19.37;99319.31;5019346;28;20026;-79
2022/05/17 10:56:59;;;;;;;3.22;2.58;;;;;;;30.03;20.66;99325.69;5012140;28;20030;-77
2022/05/17 10:59:41;;;;;;;3.20;2.47;;;;;;;29.81;21.47;99317.94;5031029;28;20520;-76
2022/05/17 11:02:34;;;;;;;3.38;2.90;;;;;;;29.77;21.23;99316.47;5030863;28;20060;-81
2022/05/17 11:05:27;;;;;;;4.75;2.90;;;;;;;29.50;21.24;99315.84;5028586;28;20107;-77
2022/05/17 11:08:07;;;;;;;6.25;3.00;;;;;;;29.83;21.95;99300.16;5031033;28;20037;-77
2022/05/17 11:10:43;;;;;;;8.23;3.13;;;;;;;29.64;21.94;99297.19;5022049;28;20504;-75
2022/05/17 11:13:19;;;;;;;3.42;2.67;;;;;;;29.72;21.40;99303.47;5023742;28;20132;-75
2022/05/17 11:16:16;;;;;;;14.77;4.07;;;;;;;29.54;21.19;99293.44;5029157;28;20136;-75
2022/05/17 11:18:50;;;;;;;4.18;3.05;;;;;;;30.44;21.71;99282.44;5028052;28;20536;-76
2022/05/17 11:21:37;;;;;;;12.25;4.55;;;;;;;30.99;21.09;99291.66;5030679;28;20096;-76
2022/05/17 11:24:23;;;;;;;8.45;2.97;;;;;;;30.87;21.30;99300.00;5030347;28;20029;-75
2022/05/17 11:26:58;;;;;;;5.97;3.45;;;;;;;30.95;20.82;99289.75;5039154;28;20191;-76
2022/05/17 11:29:46;;;;;;;13.43;4.50;;;;;;;31.26;20.45;99276.44;5029886;28;20417;-76
2022/05/17 11:32:26;;;;;;;7.85;2.40;;;;;;;30.85;20.38;99285.25;5027432;28;20108;-76
2022/05/17 11:34:53;;;;;;;4.55;2.60;;;;;;;30.81;19.65;99273.84;5029784;28;20076;-76
2022/05/17 11:37:42;;;;;;;6.22;2.85;;;;;;;30.89;20.43;99268.59;5030109;28;20025;-73
2022/05/17 11:40:10;;;;;;;3.08;2.88;;;;;;;30.62;20.40;99264.38;5017268;28;20081;-73
2022/05/17 11:45:50;;;;;;;7.68;3.00;;;;;;;31.02;20.01;99258.97;5026778;28;20044;-73
2022/05/17 11:48:19;;;;;;;4.88;3.10;;;;;;;31.16;20.16;99257.47;5022433;28;20099;-74
2022/05/17 11:50:56;;;;;;;9.90;2.88;;;;;;;31.39;20.35;99247.38;5026421;28;20412;-74